CheckWX is a tool to help pilots better visualize weather data.  It is not intended as a substitute for an official pre-flight weather briefing.

23:17:42 UTC

LEAM METAR
Almería International Airport
Almería, Spain
Current

18 mins ago

LEAM 092300Z AUTO 25002KT CAVOK 24/20 Q1015
Observed
Jul-9 @ 23:00 UTC
Wind
  • 250° at 2 KTS
Visibility
10,000+ meters
Flight Rules
VFR
Cloud Levels
  • Clear skies
Temperature
24°C / 75°F
Dewpoint
20°C / 68°F
Humidity
78%
Altimeter
29.97" Hg
Pressure
1014.92 hPa
Previous

48 mins ago

LEAM 092230Z AUTO 24003KT 9999 FEW016 24/20 Q1015
Observed
Jul-9 @ 22:30 UTC
Wind
  • 240° at 3 KTS
Visibility
10,000+ meters
Flight Rules
VFR
Cloud Levels
  • Few at 1,600' AGL
Temperature
24°C / 75°F
Dewpoint
20°C / 68°F
Humidity
78%
Altimeter
29.97" Hg
Pressure
1014.92 hPa
Previous

1 hour ago

LEAM 092200Z AUTO 24004KT 9999 BKN016 25/21 Q1015
Observed
Jul-9 @ 22:00 UTC
Wind
  • 240° at 4 KTS
Visibility
10,000+ meters
Flight Rules
MVFR
Cloud Levels
  • Broken at 1,600' AGL
Temperature
25°C / 77°F
Dewpoint
21°C / 70°F
Humidity
79%
Altimeter
29.97" Hg
Pressure
1014.92 hPa